TAF KOLM
KOLM 090520Z 0906/1006 19010KT P6SM VCSH SCT030 BKN100 FM091200 21008KT P6SM -RA OVC018 FM091800 22006KT 4SM -RA BR OVC015=
METAR KOLM
WC KOLM
WS KOLM
WV KOLM